createdAt,value
2022-11-08T00:10:19.659Z,14.80
2022-11-08T00:20:25.995Z,14.40
2022-11-08T00:30:32.323Z,15.30
2022-11-08T00:40:38.635Z,23.50
2022-11-08T00:50:44.920Z,26.00
2022-11-08T01:00:51.234Z,27.80
2022-11-08T01:10:57.564Z,26.70
2022-11-08T01:21:05.211Z,22.80
2022-11-08T01:31:13.791Z,23.20
2022-11-08T01:41:21.527Z,22.70
2022-11-08T01:51:38.172Z,23.70
2022-11-08T02:01:45.253Z,26.10
2022-11-08T02:11:53.040Z,27.10
2022-11-08T02:22:02.805Z,27.30
2022-11-08T02:32:09.195Z,26.70
2022-11-08T02:42:17.296Z,28.80
2022-11-08T02:52:23.657Z,29.70
2022-11-08T03:02:30.062Z,29.90
2022-11-08T03:12:36.392Z,26.00
2022-11-08T03:22:42.716Z,26.70
2022-11-08T03:32:49.783Z,26.50
2022-11-08T03:42:58.418Z,28.90
2022-11-08T03:53:05.008Z,27.60
2022-11-08T04:03:11.347Z,29.60
2022-11-08T04:13:36.205Z,51.00
2022-11-08T04:23:42.495Z,60.50
2022-11-08T04:33:48.810Z,47.00
2022-11-08T04:43:58.454Z,46.50
2022-11-08T04:54:06.292Z,52.90
2022-11-08T05:04:12.675Z,44.90
2022-11-08T05:14:19.051Z,55.50
2022-11-08T05:24:25.393Z,43.00
2022-11-08T05:34:31.699Z,56.10
2022-11-08T05:44:38.017Z,54.40
2022-11-08T05:54:44.290Z,56.50
2022-11-08T06:04:51.271Z,53.90
2022-11-08T06:14:57.758Z,54.40
2022-11-08T06:25:04.364Z,52.70
2022-11-08T06:35:10.987Z,51.70
2022-11-08T06:45:17.312Z,52.30
2022-11-08T06:55:23.638Z,45.50
2022-11-08T07:05:30.932Z,48.30
2022-11-08T07:15:38.385Z,45.30
2022-11-08T07:25:44.880Z,44.10
2022-11-08T07:35:51.577Z,44.40
2022-11-08T07:45:59.822Z,34.10
2022-11-08T07:56:06.237Z,30.60
2022-11-08T08:06:12.860Z,33.20
2022-11-08T08:16:19.197Z,32.20
2022-11-08T08:26:25.573Z,32.30
2022-11-08T08:36:31.872Z,27.00
2022-11-08T08:46:38.164Z,25.50
2022-11-08T08:56:44.474Z,24.70
2022-11-08T09:06:50.804Z,19.90
2022-11-08T09:16:57.967Z,19.80
2022-11-08T09:27:04.950Z,19.40
2022-11-08T09:37:11.316Z,18.00
2022-11-08T09:47:23.379Z,15.30
2022-11-08T09:57:37.268Z,15.20
2022-11-08T10:08:05.520Z,16.80
2022-11-08T10:18:41.140Z,14.20
2022-11-08T10:28:51.615Z,13.80
2022-11-08T10:39:25.077Z,13.60
2022-11-08T10:49:36.604Z,9.90
2022-11-08T10:59:44.073Z,6.70
2022-11-08T11:09:50.424Z,5.40
2022-11-08T11:19:58.031Z,5.00
2022-11-08T11:30:27.096Z,5.00
2022-11-08T11:40:40.433Z,5.10
2022-11-08T11:50:51.516Z,4.60
2022-11-08T12:01:03.124Z,4.60
2022-11-08T12:11:34.319Z,4.40
2022-11-08T12:21:53.235Z,4.60
2022-11-08T12:31:58.568Z,4.90
2022-11-08T12:42:54.520Z,4.50
2022-11-08T12:53:21.946Z,4.00
2022-11-08T13:03:52.243Z,3.80
2022-11-08T13:14:02.622Z,4.40
2022-11-08T13:24:30.831Z,4.20
2022-11-08T13:34:47.758Z,4.20
2022-11-08T13:45:01.408Z,3.70
2022-11-08T13:55:42.416Z,3.90
2022-11-08T14:05:49.595Z,4.00
2022-11-08T14:16:05.305Z,4.40
2022-11-08T14:26:15.363Z,4.30
2022-11-08T14:36:23.007Z,4.80
2022-11-08T14:46:41.233Z,5.30
2022-11-08T14:56:47.909Z,6.40
2022-11-08T15:06:56.435Z,6.20
2022-11-08T15:17:03.626Z,8.30
2022-11-08T15:27:13.070Z,9.40
2022-11-08T15:37:39.992Z,10.70
2022-11-08T15:47:48.240Z,11.00
2022-11-08T15:57:55.727Z,18.80
2022-11-08T16:08:02.218Z,19.10
2022-11-08T16:18:11.763Z,20.90
2022-11-08T16:28:29.531Z,22.50
2022-11-08T16:38:37.320Z,20.30
2022-11-08T16:48:53.017Z,20.10
2022-11-08T16:58:59.459Z,25.40
2022-11-08T17:09:06.019Z,26.10
2022-11-08T17:19:12.309Z,37.00
2022-11-08T17:29:18.649Z,61.20
2022-11-08T17:39:25.135Z,50.00
2022-11-08T17:49:31.555Z,38.40
2022-11-08T17:59:37.924Z,34.60
2022-11-08T18:09:44.230Z,38.90
2022-11-08T18:19:50.592Z,38.70
2022-11-08T18:29:56.951Z,37.70
2022-11-08T18:40:03.348Z,32.30
2022-11-08T18:50:10.720Z,25.90
2022-11-08T19:00:18.776Z,24.30
2022-11-08T19:10:25.095Z,26.40
2022-11-08T19:20:31.401Z,25.20
2022-11-08T19:30:37.730Z,26.60
2022-11-08T19:40:44.112Z,27.40
2022-11-08T19:50:51.863Z,27.70
2022-11-08T20:00:58.256Z,29.40
2022-11-08T20:11:25.691Z,29.00
2022-11-08T20:21:32.469Z,29.30
2022-11-08T20:31:39.397Z,29.50
2022-11-08T20:41:45.816Z,29.20
2022-11-08T20:51:52.156Z,30.20
2022-11-08T21:01:58.499Z,30.80
2022-11-08T21:12:04.939Z,29.80
2022-11-08T21:22:17.198Z,29.50
2022-11-08T21:32:23.628Z,33.60
2022-11-08T21:42:31.438Z,32.30
2022-11-08T21:52:39.500Z,31.80
2022-11-08T22:02:46.367Z,34.00
2022-11-08T22:12:52.760Z,35.80
2022-11-08T22:23:00.302Z,37.70
2022-11-08T22:33:09.039Z,41.60
2022-11-08T22:43:15.549Z,39.30
2022-11-08T22:53:22.108Z,34.30
2022-11-08T23:03:28.894Z,36.20
2022-11-08T23:13:53.752Z,37.80
2022-11-08T23:24:17.740Z,35.80
2022-11-08T23:34:24.104Z,32.10
2022-11-08T23:44:30.484Z,31.80
2022-11-08T23:54:37.137Z,30.50
